sensor_id;sensor_type;location;lat;lon;timestamp;P1;durP1;ratioP1;P2;durP2;ratioP2
14056;SDS011;7103;54.300;10.180;2022-07-05T00:00:15;0.10;;;0.10;;
14056;SDS011;7103;54.300;10.180;2022-07-05T00:02:42;0.10;;;0.10;;
14056;SDS011;7103;54.300;10.180;2022-07-05T00:05:09;0.10;;;0.10;;
14056;SDS011;7103;54.300;10.180;2022-07-05T00:07:36;0.10;;;0.10;;
14056;SDS011;7103;54.300;10.180;2022-07-05T00:10:03;0.00;;;0.00;;
14056;SDS011;7103;54.300;10.180;2022-07-05T00:12:31;0.07;;;0.07;;
14056;SDS011;7103;54.300;10.180;2022-07-05T00:14:59;0.10;;;0.10;;
14056;SDS011;7103;54.300;10.180;2022-07-05T00:17:27;0.10;;;0.10;;
14056;SDS011;7103;54.300;10.180;2022-07-05T00:19:53;0.10;;;0.10;;
14056;SDS011;7103;54.300;10.180;2022-07-05T00:22:20;0.10;;;0.10;;
14056;SDS011;7103;54.300;10.180;2022-07-05T00:24:54;0.10;;;0.10;;
14056;SDS011;7103;54.300;10.180;2022-07-05T00:27:21;0.10;;;0.10;;
14056;SDS011;7103;54.300;10.180;2022-07-05T00:29:48;0.10;;;0.10;;
14056;SDS011;7103;54.300;10.180;2022-07-05T00:32:15;0.10;;;0.10;;
14056;SDS011;7103;54.300;10.180;2022-07-05T00:34:42;0.10;;;0.10;;
14056;SDS011;7103;54.300;10.180;2022-07-05T00:37:10;0.10;;;0.10;;
14056;SDS011;7103;54.300;10.180;2022-07-05T00:39:36;0.10;;;0.10;;
14056;SDS011;7103;54.300;10.180;2022-07-05T00:42:03;0.10;;;0.10;;
14056;SDS011;7103;54.300;10.180;2022-07-05T00:44:34;0.10;;;0.10;;
14056;SDS011;7103;54.300;10.180;2022-07-05T00:47:06;0.10;;;0.10;;
14056;SDS011;7103;54.300;10.180;2022-07-05T00:49:35;0.10;;;0.10;;
14056;SDS011;7103;54.300;10.180;2022-07-05T00:52:03;0.00;;;0.00;;
14056;SDS011;7103;54.300;10.180;2022-07-05T00:54:47;0.00;;;0.00;;
14056;SDS011;7103;54.300;10.180;2022-07-05T00:57:14;0.10;;;0.10;;
14056;SDS011;7103;54.300;10.180;2022-07-05T00:59:42;0.00;;;0.00;;
14056;SDS011;7103;54.300;10.180;2022-07-05T01:02:09;0.10;;;0.10;;
14056;SDS011;7103;54.300;10.180;2022-07-05T01:04:43;0.10;;;0.10;;
14056;SDS011;7103;54.300;10.180;2022-07-05T01:07:11;0.10;;;0.10;;
14056;SDS011;7103;54.300;10.180;2022-07-05T01:09:38;0.10;;;0.10;;
14056;SDS011;7103;54.300;10.180;2022-07-05T01:12:06;0.00;;;0.00;;
14056;SDS011;7103;54.300;10.180;2022-07-05T01:14:35;0.10;;;0.10;;
14056;SDS011;7103;54.300;10.180;2022-07-05T01:17:02;0.10;;;0.10;;
14056;SDS011;7103;54.300;10.180;2022-07-05T01:19:30;0.10;;;0.10;;
14056;SDS011;7103;54.300;10.180;2022-07-05T01:21:57;0.00;;;0.00;;
14056;SDS011;7103;54.300;10.180;2022-07-05T01:24:31;0.00;;;0.00;;
14056;SDS011;7103;54.300;10.180;2022-07-05T01:26:58;0.10;;;0.10;;
14056;SDS011;7103;54.300;10.180;2022-07-05T01:29:25;0.00;;;0.00;;
14056;SDS011;7103;54.300;10.180;2022-07-05T01:31:52;0.10;;;0.10;;
14056;SDS011;7103;54.300;10.180;2022-07-05T01:34:19;0.10;;;0.10;;
14056;SDS011;7103;54.300;10.180;2022-07-05T01:36:46;0.10;;;0.10;;
14056;SDS011;7103;54.300;10.180;2022-07-05T01:39:14;0.10;;;0.10;;
14056;SDS011;7103;54.300;10.180;2022-07-05T01:41:42;0.10;;;0.10;;
14056;SDS011;7103;54.300;10.180;2022-07-05T01:44:09;0.10;;;0.10;;
14056;SDS011;7103;54.300;10.180;2022-07-05T01:46:38;0.10;;;0.10;;
14056;SDS011;7103;54.300;10.180;2022-07-05T01:49:09;0.10;;;0.10;;
14056;SDS011;7103;54.300;10.180;2022-07-05T01:51:50;0.00;;;0.00;;
14056;SDS011;7103;54.300;10.180;2022-07-05T01:54:20;0.00;;;0.00;;
14056;SDS011;7103;54.300;10.180;2022-07-05T01:56:47;0.10;;;0.10;;
14056;SDS011;7103;54.300;10.180;2022-07-05T01:59:14;0.10;;;0.10;;
14056;SDS011;7103;54.300;10.180;2022-07-05T02:01:41;0.10;;;0.10;;
14056;SDS011;7103;54.300;10.180;2022-07-05T02:04:09;0.10;;;0.10;;
14056;SDS011;7103;54.300;10.180;2022-07-05T02:06:36;0.00;;;0.00;;
14056;SDS011;7103;54.300;10.180;2022-07-05T02:09:04;0.00;;;0.00;;
14056;SDS011;7103;54.300;10.180;2022-07-05T02:11:33;0.10;;;0.10;;
14056;SDS011;7103;54.300;10.180;2022-07-05T02:14:00;0.00;;;0.00;;
14056;SDS011;7103;54.300;10.180;2022-07-05T02:16:28;0.00;;;0.00;;
14056;SDS011;7103;54.300;10.180;2022-07-05T02:18:55;0.10;;;0.10;;
14056;SDS011;7103;54.300;10.180;2022-07-05T02:21:22;0.10;;;0.10;;
14056;SDS011;7103;54.300;10.180;2022-07-05T02:23:50;0.10;;;0.10;;
14056;SDS011;7103;54.300;10.180;2022-07-05T02:26:17;0.10;;;0.10;;
14056;SDS011;7103;54.300;10.180;2022-07-05T02:28:44;0.10;;;0.10;;
14056;SDS011;7103;54.300;10.180;2022-07-05T02:31:11;0.10;;;0.10;;
14056;SDS011;7103;54.300;10.180;2022-07-05T02:33:38;0.00;;;0.00;;
14056;SDS011;7103;54.300;10.180;2022-07-05T02:36:09;0.10;;;0.10;;
14056;SDS011;7103;54.300;10.180;2022-07-05T02:38:37;0.00;;;0.00;;
14056;SDS011;7103;54.300;10.180;2022-07-05T02:41:05;0.00;;;0.00;;
14056;SDS011;7103;54.300;10.180;2022-07-05T02:43:33;0.10;;;0.10;;
14056;SDS011;7103;54.300;10.180;2022-07-05T02:46:01;0.00;;;0.00;;
14056;SDS011;7103;54.300;10.180;2022-07-05T02:48:29;0.10;;;0.10;;
14056;SDS011;7103;54.300;10.180;2022-07-05T02:50:56;0.10;;;0.10;;
14056;SDS011;7103;54.300;10.180;2022-07-05T02:53:23;0.00;;;0.00;;
14056;SDS011;7103;54.300;10.180;2022-07-05T02:55:51;0.10;;;0.10;;
14056;SDS011;7103;54.300;10.180;2022-07-05T02:58:18;0.07;;;0.07;;
14056;SDS011;7103;54.300;10.180;2022-07-05T03:00:45;0.00;;;0.00;;
14056;SDS011;7103;54.300;10.180;2022-07-05T03:03:14;0.10;;;0.10;;
14056;SDS011;7103;54.300;10.180;2022-07-05T03:05:42;0.10;;;0.10;;
14056;SDS011;7103;54.300;10.180;2022-07-05T03:08:09;0.10;;;0.10;;
14056;SDS011;7103;54.300;10.180;2022-07-05T03:10:36;0.10;;;0.10;;
14056;SDS011;7103;54.300;10.180;2022-07-05T03:13:03;0.10;;;0.10;;
14056;SDS011;7103;54.300;10.180;2022-07-05T03:15:30;0.10;;;0.10;;
14056;SDS011;7103;54.300;10.180;2022-07-05T03:17:57;0.00;;;0.00;;
14056;SDS011;7103;54.300;10.180;2022-07-05T03:20:24;0.10;;;0.10;;
14056;SDS011;7103;54.300;10.180;2022-07-05T03:22:51;0.10;;;0.10;;
14056;SDS011;7103;54.300;10.180;2022-07-05T03:25:18;0.10;;;0.10;;
14056;SDS011;7103;54.300;10.180;2022-07-05T03:27:45;0.10;;;0.10;;
14056;SDS011;7103;54.300;10.180;2022-07-05T03:30:12;0.00;;;0.00;;
14056;SDS011;7103;54.300;10.180;2022-07-05T03:32:40;0.10;;;0.10;;
14056;SDS011;7103;54.300;10.180;2022-07-05T03:35:07;0.00;;;0.00;;
14056;SDS011;7103;54.300;10.180;2022-07-05T03:37:34;0.00;;;0.00;;
14056;SDS011;7103;54.300;10.180;2022-07-05T03:40:01;0.00;;;0.00;;
14056;SDS011;7103;54.300;10.180;2022-07-05T03:42:29;0.00;;;0.00;;
14056;SDS011;7103;54.300;10.180;2022-07-05T03:44:56;0.00;;;0.00;;
14056;SDS011;7103;54.300;10.180;2022-07-05T03:47:22;0.00;;;0.00;;
14056;SDS011;7103;54.300;10.180;2022-07-05T03:49:49;0.00;;;0.00;;
14056;SDS011;7103;54.300;10.180;2022-07-05T03:52:16;0.10;;;0.10;;
14056;SDS011;7103;54.300;10.180;2022-07-05T03:54:49;0.10;;;0.10;;
14056;SDS011;7103;54.300;10.180;2022-07-05T03:57:16;0.00;;;0.00;;
14056;SDS011;7103;54.300;10.180;2022-07-05T03:59:43;0.00;;;0.00;;
14056;SDS011;7103;54.300;10.180;2022-07-05T04:02:11;0.00;;;0.00;;
14056;SDS011;7103;54.300;10.180;2022-07-05T04:04:38;0.00;;;0.00;;
14056;SDS011;7103;54.300;10.180;2022-07-05T04:07:05;0.10;;;0.10;;
14056;SDS011;7103;54.300;10.180;2022-07-05T04:09:32;0.10;;;0.10;;
14056;SDS011;7103;54.300;10.180;2022-07-05T04:11:59;0.00;;;0.00;;
14056;SDS011;7103;54.300;10.180;2022-07-05T04:14:26;0.10;;;0.10;;
14056;SDS011;7103;54.300;10.180;2022-07-05T04:16:53;0.10;;;0.10;;
14056;SDS011;7103;54.300;10.180;2022-07-05T04:19:20;0.00;;;0.00;;
14056;SDS011;7103;54.300;10.180;2022-07-05T04:21:47;0.00;;;0.00;;
14056;SDS011;7103;54.300;10.180;2022-07-05T04:24:14;0.10;;;0.10;;
14056;SDS011;7103;54.300;10.180;2022-07-05T04:26:41;0.00;;;0.00;;
14056;SDS011;7103;54.300;10.180;2022-07-05T04:29:08;0.10;;;0.10;;
14056;SDS011;7103;54.300;10.180;2022-07-05T04:31:35;0.10;;;0.10;;
14056;SDS011;7103;54.300;10.180;2022-07-05T04:34:02;0.10;;;0.10;;
14056;SDS011;7103;54.300;10.180;2022-07-05T04:36:29;0.10;;;0.10;;
14056;SDS011;7103;54.300;10.180;2022-07-05T04:38:56;0.10;;;0.10;;
14056;SDS011;7103;54.300;10.180;2022-07-05T04:41:23;0.00;;;0.00;;
14056;SDS011;7103;54.300;10.180;2022-07-05T04:43:50;0.00;;;0.00;;
14056;SDS011;7103;54.300;10.180;2022-07-05T04:46:17;0.10;;;0.10;;
14056;SDS011;7103;54.300;10.180;2022-07-05T04:48:44;0.00;;;0.00;;
14056;SDS011;7103;54.300;10.180;2022-07-05T04:51:11;0.00;;;0.00;;
14056;SDS011;7103;54.300;10.180;2022-07-05T04:53:38;0.00;;;0.00;;
14056;SDS011;7103;54.300;10.180;2022-07-05T04:56:05;0.10;;;0.10;;
14056;SDS011;7103;54.300;10.180;2022-07-05T04:58:32;0.00;;;0.00;;
14056;SDS011;7103;54.300;10.180;2022-07-05T05:01:00;0.00;;;0.00;;
14056;SDS011;7103;54.300;10.180;2022-07-05T05:03:27;0.07;;;0.07;;
14056;SDS011;7103;54.300;10.180;2022-07-05T05:05:54;0.00;;;0.00;;
14056;SDS011;7103;54.300;10.180;2022-07-05T05:08:21;0.10;;;0.10;;
14056;SDS011;7103;54.300;10.180;2022-07-05T05:10:47;0.00;;;0.00;;
14056;SDS011;7103;54.300;10.180;2022-07-05T05:13:14;0.00;;;0.00;;
14056;SDS011;7103;54.300;10.180;2022-07-05T05:15:41;0.00;;;0.00;;
14056;SDS011;7103;54.300;10.180;2022-07-05T05:18:08;0.10;;;0.10;;
14056;SDS011;7103;54.300;10.180;2022-07-05T05:20:35;0.00;;;0.00;;
14056;SDS011;7103;54.300;10.180;2022-07-05T05:23:06;0.00;;;0.00;;
14056;SDS011;7103;54.300;10.180;2022-07-05T05:25:33;0.00;;;0.00;;
14056;SDS011;7103;54.300;10.180;2022-07-05T05:28:01;0.10;;;0.10;;
14056;SDS011;7103;54.300;10.180;2022-07-05T05:30:28;0.10;;;0.10;;
14056;SDS011;7103;54.300;10.180;2022-07-05T05:32:55;0.10;;;0.10;;
14056;SDS011;7103;54.300;10.180;2022-07-05T05:35:22;0.10;;;0.10;;
14056;SDS011;7103;54.300;10.180;2022-07-05T05:40:21;0.10;;;0.10;;
14056;SDS011;7103;54.300;10.180;2022-07-05T05:42:49;0.10;;;0.10;;
14056;SDS011;7103;54.300;10.180;2022-07-05T05:45:17;0.10;;;0.10;;
14056;SDS011;7103;54.300;10.180;2022-07-05T05:47:56;0.10;;;0.10;;
14056;SDS011;7103;54.300;10.180;2022-07-05T05:50:25;0.10;;;0.10;;
14056;SDS011;7103;54.300;10.180;2022-07-05T05:53:29;0.10;;;0.10;;
14056;SDS011;7103;54.300;10.180;2022-07-05T05:55:56;0.10;;;0.10;;
14056;SDS011;7103;54.300;10.180;2022-07-05T05:58:23;0.10;;;0.10;;
14056;SDS011;7103;54.300;10.180;2022-07-05T06:00:51;0.10;;;0.10;;
14056;SDS011;7103;54.300;10.180;2022-07-05T06:03:22;0.10;;;0.10;;
14056;SDS011;7103;54.300;10.180;2022-07-05T06:05:51;0.10;;;0.10;;
14056;SDS011;7103;54.300;10.180;2022-07-05T06:08:18;0.10;;;0.10;;
14056;SDS011;7103;54.300;10.180;2022-07-05T06:10:45;0.10;;;0.10;;
14056;SDS011;7103;54.300;10.180;2022-07-05T06:13:20;0.10;;;0.10;;
14056;SDS011;7103;54.300;10.180;2022-07-05T06:15:47;0.10;;;0.10;;
14056;SDS011;7103;54.300;10.180;2022-07-05T06:18:14;0.10;;;0.10;;
14056;SDS011;7103;54.300;10.180;2022-07-05T06:20:41;0.10;;;0.10;;
14056;SDS011;7103;54.300;10.180;2022-07-05T06:23:08;0.10;;;0.10;;
14056;SDS011;7103;54.300;10.180;2022-07-05T06:25:35;0.10;;;0.10;;
14056;SDS011;7103;54.300;10.180;2022-07-05T06:28:07;0.10;;;0.10;;
14056;SDS011;7103;54.300;10.180;2022-07-05T06:30:35;0.10;;;0.10;;
14056;SDS011;7103;54.300;10.180;2022-07-05T06:33:04;0.10;;;0.10;;
14056;SDS011;7103;54.300;10.180;2022-07-05T06:35:31;0.10;;;0.10;;
14056;SDS011;7103;54.300;10.180;2022-07-05T06:37:59;0.10;;;0.10;;
14056;SDS011;7103;54.300;10.180;2022-07-05T06:40:26;0.10;;;0.10;;
14056;SDS011;7103;54.300;10.180;2022-07-05T06:42:58;0.10;;;0.10;;
14056;SDS011;7103;54.300;10.180;2022-07-05T06:45:27;0.10;;;0.10;;
14056;SDS011;7103;54.300;10.180;2022-07-05T06:47:55;0.13;;;0.13;;
14056;SDS011;7103;54.300;10.180;2022-07-05T06:50:22;0.20;;;0.20;;
14056;SDS011;7103;54.300;10.180;2022-07-05T06:52:49;0.10;;;0.10;;
14056;SDS011;7103;54.300;10.180;2022-07-05T06:55:16;0.10;;;0.10;;
14056;SDS011;7103;54.300;10.180;2022-07-05T06:57:46;0.20;;;0.20;;
14056;SDS011;7103;54.300;10.180;2022-07-05T07:00:33;0.20;;;0.20;;
14056;SDS011;7103;54.300;10.180;2022-07-05T07:03:20;0.17;;;0.17;;
14056;SDS011;7103;54.300;10.180;2022-07-05T07:06:07;0.10;;;0.10;;
14056;SDS011;7103;54.300;10.180;2022-07-05T07:08:35;0.10;;;0.10;;
14056;SDS011;7103;54.300;10.180;2022-07-05T07:11:20;0.10;;;0.10;;
14056;SDS011;7103;54.300;10.180;2022-07-05T07:13:47;0.10;;;0.10;;
14056;SDS011;7103;54.300;10.180;2022-07-05T07:16:14;0.20;;;0.20;;
14056;SDS011;7103;54.300;10.180;2022-07-05T07:18:41;0.20;;;0.20;;
14056;SDS011;7103;54.300;10.180;2022-07-05T07:21:28;0.20;;;0.20;;
14056;SDS011;7103;54.300;10.180;2022-07-05T07:23:55;0.10;;;0.10;;
14056;SDS011;7103;54.300;10.180;2022-07-05T07:26:22;0.20;;;0.20;;
14056;SDS011;7103;54.300;10.180;2022-07-05T07:28:49;0.20;;;0.20;;
14056;SDS011;7103;54.300;10.180;2022-07-05T07:31:15;0.20;;;0.20;;
14056;SDS011;7103;54.300;10.180;2022-07-05T07:33:42;0.20;;;0.20;;
14056;SDS011;7103;54.300;10.180;2022-07-05T07:36:10;0.20;;;0.20;;
14056;SDS011;7103;54.300;10.180;2022-07-05T07:38:41;0.20;;;0.20;;
14056;SDS011;7103;54.300;10.180;2022-07-05T07:41:08;0.20;;;0.20;;
14056;SDS011;7103;54.300;10.180;2022-07-05T07:43:35;0.20;;;0.20;;
14056;SDS011;7103;54.300;10.180;2022-07-05T07:46:02;0.20;;;0.20;;
14056;SDS011;7103;54.300;10.180;2022-07-05T07:48:29;0.30;;;0.30;;
14056;SDS011;7103;54.300;10.180;2022-07-05T07:50:57;0.20;;;0.20;;
14056;SDS011;7103;54.300;10.180;2022-07-05T07:53:24;0.20;;;0.20;;
14056;SDS011;7103;54.300;10.180;2022-07-05T07:55:51;0.20;;;0.20;;
14056;SDS011;7103;54.300;10.180;2022-07-05T07:58:17;0.20;;;0.20;;
14056;SDS011;7103;54.300;10.180;2022-07-05T08:00:45;0.10;;;0.10;;
14056;SDS011;7103;54.300;10.180;2022-07-05T08:03:11;0.20;;;0.20;;
14056;SDS011;7103;54.300;10.180;2022-07-05T08:05:38;0.20;;;0.20;;
14056;SDS011;7103;54.300;10.180;2022-07-05T08:08:06;0.20;;;0.20;;
14056;SDS011;7103;54.300;10.180;2022-07-05T08:10:32;0.10;;;0.10;;
14056;SDS011;7103;54.300;10.180;2022-07-05T08:12:59;0.10;;;0.10;;
14056;SDS011;7103;54.300;10.180;2022-07-05T08:15:26;0.10;;;0.10;;
14056;SDS011;7103;54.300;10.180;2022-07-05T08:17:53;0.20;;;0.20;;
14056;SDS011;7103;54.300;10.180;2022-07-05T08:20:39;0.20;;;0.20;;
14056;SDS011;7103;54.300;10.180;2022-07-05T08:23:24;0.20;;;0.20;;
14056;SDS011;7103;54.300;10.180;2022-07-05T08:25:57;0.20;;;0.20;;
14056;SDS011;7103;54.300;10.180;2022-07-05T08:28:24;0.20;;;0.20;;
14056;SDS011;7103;54.300;10.180;2022-07-05T08:30:52;0.20;;;0.20;;
14056;SDS011;7103;54.300;10.180;2022-07-05T08:33:20;0.20;;;0.20;;
14056;SDS011;7103;54.300;10.180;2022-07-05T08:35:46;0.20;;;0.20;;
14056;SDS011;7103;54.300;10.180;2022-07-05T08:38:16;0.20;;;0.20;;
14056;SDS011;7103;54.300;10.180;2022-07-05T08:40:47;0.20;;;0.20;;
14056;SDS011;7103;54.300;10.180;2022-07-05T08:43:17;0.20;;;0.20;;
14056;SDS011;7103;54.300;10.180;2022-07-05T08:45:44;0.20;;;0.20;;
14056;SDS011;7103;54.300;10.180;2022-07-05T08:48:14;0.20;;;0.20;;
14056;SDS011;7103;54.300;10.180;2022-07-05T08:50:43;0.20;;;0.20;;
14056;SDS011;7103;54.300;10.180;2022-07-05T08:53:14;0.20;;;0.20;;
14056;SDS011;7103;54.300;10.180;2022-07-05T08:55:42;0.20;;;0.20;;
14056;SDS011;7103;54.300;10.180;2022-07-05T08:58:09;0.20;;;0.20;;
14056;SDS011;7103;54.300;10.180;2022-07-05T09:00:40;0.20;;;0.20;;
14056;SDS011;7103;54.300;10.180;2022-07-05T09:03:08;0.20;;;0.20;;
14056;SDS011;7103;54.300;10.180;2022-07-05T09:05:39;0.20;;;0.20;;
14056;SDS011;7103;54.300;10.180;2022-07-05T09:08:10;0.20;;;0.20;;
14056;SDS011;7103;54.300;10.180;2022-07-05T09:10:42;0.20;;;0.20;;
14056;SDS011;7103;54.300;10.180;2022-07-05T09:13:14;0.20;;;0.20;;
14056;SDS011;7103;54.300;10.180;2022-07-05T09:15:42;0.20;;;0.20;;
14056;SDS011;7103;54.300;10.180;2022-07-05T09:18:09;0.20;;;0.20;;
14056;SDS011;7103;54.300;10.180;2022-07-05T09:20:37;0.20;;;0.20;;
14056;SDS011;7103;54.300;10.180;2022-07-05T09:23:04;0.20;;;0.20;;
14056;SDS011;7103;54.300;10.180;2022-07-05T09:25:31;0.20;;;0.20;;
14056;SDS011;7103;54.300;10.180;2022-07-05T09:28:01;0.20;;;0.20;;
14056;SDS011;7103;54.300;10.180;2022-07-05T09:30:36;0.20;;;0.20;;
14056;SDS011;7103;54.300;10.180;2022-07-05T09:35:34;0.20;;;0.20;;
14056;SDS011;7103;54.300;10.180;2022-07-05T09:38:03;0.20;;;0.20;;
14056;SDS011;7103;54.300;10.180;2022-07-05T09:40:31;0.20;;;0.20;;
14056;SDS011;7103;54.300;10.180;2022-07-05T09:43:12;0.20;;;0.20;;
14056;SDS011;7103;54.300;10.180;2022-07-05T09:45:56;0.20;;;0.20;;
14056;SDS011;7103;54.300;10.180;2022-07-05T09:48:25;0.30;;;0.30;;
14056;SDS011;7103;54.300;10.180;2022-07-05T09:53:56;0.30;;;0.30;;
14056;SDS011;7103;54.300;10.180;2022-07-05T09:56:28;0.20;;;0.20;;
14056;SDS011;7103;54.300;10.180;2022-07-05T09:59:11;0.30;;;0.30;;
14056;SDS011;7103;54.300;10.180;2022-07-05T10:01:39;0.20;;;0.20;;
14056;SDS011;7103;54.300;10.180;2022-07-05T10:04:07;0.30;;;0.30;;
14056;SDS011;7103;54.300;10.180;2022-07-05T10:06:35;0.30;;;0.30;;
14056;SDS011;7103;54.300;10.180;2022-07-05T10:09:02;0.30;;;0.30;;
14056;SDS011;7103;54.300;10.180;2022-07-05T10:11:31;0.20;;;0.20;;
14056;SDS011;7103;54.300;10.180;2022-07-05T10:13:58;0.30;;;0.30;;
14056;SDS011;7103;54.300;10.180;2022-07-05T10:16:28;0.20;;;0.20;;
14056;SDS011;7103;54.300;10.180;2022-07-05T10:18:56;0.20;;;0.20;;
14056;SDS011;7103;54.300;10.180;2022-07-05T10:21:24;0.20;;;0.20;;
14056;SDS011;7103;54.300;10.180;2022-07-05T10:23:53;0.20;;;0.20;;
14056;SDS011;7103;54.300;10.180;2022-07-05T10:26:22;0.20;;;0.20;;
14056;SDS011;7103;54.300;10.180;2022-07-05T10:28:51;0.20;;;0.20;;
14056;SDS011;7103;54.300;10.180;2022-07-05T10:31:27;0.20;;;0.20;;
14056;SDS011;7103;54.300;10.180;2022-07-05T10:33:55;0.20;;;0.20;;
14056;SDS011;7103;54.300;10.180;2022-07-05T10:36:27;0.20;;;0.20;;
14056;SDS011;7103;54.300;10.180;2022-07-05T10:38:54;0.20;;;0.20;;
14056;SDS011;7103;54.300;10.180;2022-07-05T10:41:24;0.20;;;0.20;;
14056;SDS011;7103;54.300;10.180;2022-07-05T10:43:55;0.20;;;0.20;;
14056;SDS011;7103;54.300;10.180;2022-07-05T10:46:37;0.20;;;0.20;;
14056;SDS011;7103;54.300;10.180;2022-07-05T10:49:14;0.20;;;0.20;;
14056;SDS011;7103;54.300;10.180;2022-07-05T10:51:44;0.20;;;0.20;;
14056;SDS011;7103;54.300;10.180;2022-07-05T10:54:18;0.20;;;0.20;;
14056;SDS011;7103;54.300;10.180;2022-07-05T11:00:05;0.20;;;0.20;;
14056;SDS011;7103;54.300;10.180;2022-07-05T11:02:33;0.20;;;0.20;;
14056;SDS011;7103;54.300;10.180;2022-07-05T11:05:01;0.20;;;0.20;;
14056;SDS011;7103;54.300;10.180;2022-07-05T11:10:29;0.20;;;0.20;;
14056;SDS011;7103;54.300;10.180;2022-07-05T11:12:58;0.20;;;0.20;;
14056;SDS011;7103;54.300;10.180;2022-07-05T11:15:25;0.20;;;0.20;;
14056;SDS011;7103;54.300;10.180;2022-07-05T11:18:13;0.20;;;0.20;;
14056;SDS011;7103;54.300;10.180;2022-07-05T11:20:41;0.20;;;0.20;;
14056;SDS011;7103;54.300;10.180;2022-07-05T11:23:10;0.30;;;0.30;;
14056;SDS011;7103;54.300;10.180;2022-07-05T11:25:39;0.20;;;0.20;;
14056;SDS011;7103;54.300;10.180;2022-07-05T11:28:13;0.20;;;0.20;;
14056;SDS011;7103;54.300;10.180;2022-07-05T11:30:59;0.30;;;0.30;;
14056;SDS011;7103;54.300;10.180;2022-07-05T11:33:29;0.23;;;0.23;;
14056;SDS011;7103;54.300;10.180;2022-07-05T11:36:00;0.30;;;0.30;;
14056;SDS011;7103;54.300;10.180;2022-07-05T11:38:30;0.20;;;0.20;;
14056;SDS011;7103;54.300;10.180;2022-07-05T11:41:17;0.30;;;0.30;;
14056;SDS011;7103;54.300;10.180;2022-07-05T11:43:44;0.20;;;0.20;;
14056;SDS011;7103;54.300;10.180;2022-07-05T11:46:22;0.20;;;0.20;;
14056;SDS011;7103;54.300;10.180;2022-07-05T11:49:10;0.20;;;0.20;;
14056;SDS011;7103;54.300;10.180;2022-07-05T11:51:37;0.20;;;0.20;;
14056;SDS011;7103;54.300;10.180;2022-07-05T11:54:04;0.20;;;0.20;;
14056;SDS011;7103;54.300;10.180;2022-07-05T11:56:42;0.20;;;0.20;;
14056;SDS011;7103;54.300;10.180;2022-07-05T11:59:21;0.20;;;0.20;;
14056;SDS011;7103;54.300;10.180;2022-07-05T12:01:50;0.20;;;0.20;;
14056;SDS011;7103;54.300;10.180;2022-07-05T12:04:26;0.20;;;0.20;;
14056;SDS011;7103;54.300;10.180;2022-07-05T12:06:55;0.30;;;0.30;;
14056;SDS011;7103;54.300;10.180;2022-07-05T12:09:26;0.20;;;0.20;;
14056;SDS011;7103;54.300;10.180;2022-07-05T12:12:21;0.30;;;0.30;;
14056;SDS011;7103;54.300;10.180;2022-07-05T12:15:09;0.20;;;0.20;;
14056;SDS011;7103;54.300;10.180;2022-07-05T12:17:42;0.20;;;0.20;;
14056;SDS011;7103;54.300;10.180;2022-07-05T12:20:23;0.20;;;0.20;;
14056;SDS011;7103;54.300;10.180;2022-07-05T12:22:51;0.20;;;0.20;;
14056;SDS011;7103;54.300;10.180;2022-07-05T12:25:19;0.20;;;0.20;;
14056;SDS011;7103;54.300;10.180;2022-07-05T12:27:48;0.20;;;0.20;;
14056;SDS011;7103;54.300;10.180;2022-07-05T12:30:17;0.20;;;0.20;;
14056;SDS011;7103;54.300;10.180;2022-07-05T12:36:02;0.20;;;0.20;;
14056;SDS011;7103;54.300;10.180;2022-07-05T12:38:22;0.30;;;0.30;;
14056;SDS011;7103;54.300;10.180;2022-07-05T12:40:58;0.20;;;0.20;;
14056;SDS011;7103;54.300;10.180;2022-07-05T12:43:26;0.20;;;0.20;;
14056;SDS011;7103;54.300;10.180;2022-07-05T12:46:00;0.20;;;0.20;;
14056;SDS011;7103;54.300;10.180;2022-07-05T12:48:31;0.20;;;0.20;;
14056;SDS011;7103;54.300;10.180;2022-07-05T12:51:02;0.20;;;0.20;;
14056;SDS011;7103;54.300;10.180;2022-07-05T12:53:44;0.30;;;0.30;;
14056;SDS011;7103;54.300;10.180;2022-07-05T12:56:31;0.20;;;0.20;;
14056;SDS011;7103;54.300;10.180;2022-07-05T12:59:37;0.20;;;0.20;;
14056;SDS011;7103;54.300;10.180;2022-07-05T13:02:04;0.30;;;0.30;;
14056;SDS011;7103;54.300;10.180;2022-07-05T13:04:31;0.20;;;0.20;;
14056;SDS011;7103;54.300;10.180;2022-07-05T13:06:59;0.30;;;0.30;;
14056;SDS011;7103;54.300;10.180;2022-07-05T13:09:38;0.20;;;0.20;;
14056;SDS011;7103;54.300;10.180;2022-07-05T13:12:09;0.20;;;0.20;;
14056;SDS011;7103;54.300;10.180;2022-07-05T13:14:37;0.20;;;0.20;;
14056;SDS011;7103;54.300;10.180;2022-07-05T13:17:06;0.20;;;0.20;;
14056;SDS011;7103;54.300;10.180;2022-07-05T13:19:35;0.20;;;0.20;;
14056;SDS011;7103;54.300;10.180;2022-07-05T13:22:04;0.30;;;0.30;;
14056;SDS011;7103;54.300;10.180;2022-07-05T13:24:31;0.20;;;0.20;;
14056;SDS011;7103;54.300;10.180;2022-07-05T13:26:58;0.20;;;0.20;;
14056;SDS011;7103;54.300;10.180;2022-07-05T13:29:25;0.20;;;0.20;;
14056;SDS011;7103;54.300;10.180;2022-07-05T13:31:53;0.20;;;0.20;;
14056;SDS011;7103;54.300;10.180;2022-07-05T13:34:20;0.20;;;0.20;;
14056;SDS011;7103;54.300;10.180;2022-07-05T13:36:58;0.20;;;0.20;;
14056;SDS011;7103;54.300;10.180;2022-07-05T13:39:27;0.20;;;0.20;;
14056;SDS011;7103;54.300;10.180;2022-07-05T13:41:56;0.20;;;0.20;;
14056;SDS011;7103;54.300;10.180;2022-07-05T13:44:24;0.20;;;0.20;;
14056;SDS011;7103;54.300;10.180;2022-07-05T13:46:51;0.30;;;0.30;;
14056;SDS011;7103;54.300;10.180;2022-07-05T13:49:18;0.20;;;0.20;;
14056;SDS011;7103;54.300;10.180;2022-07-05T13:51:46;0.20;;;0.20;;
14056;SDS011;7103;54.300;10.180;2022-07-05T13:54:13;0.20;;;0.20;;
14056;SDS011;7103;54.300;10.180;2022-07-05T13:56:40;0.20;;;0.20;;
14056;SDS011;7103;54.300;10.180;2022-07-05T13:59:07;0.20;;;0.20;;
14056;SDS011;7103;54.300;10.180;2022-07-05T14:01:34;0.20;;;0.20;;
14056;SDS011;7103;54.300;10.180;2022-07-05T14:04:01;0.20;;;0.20;;
14056;SDS011;7103;54.300;10.180;2022-07-05T14:06:29;0.30;;;0.30;;
14056;SDS011;7103;54.300;10.180;2022-07-05T14:08:57;0.30;;;0.30;;
14056;SDS011;7103;54.300;10.180;2022-07-05T14:11:25;0.20;;;0.20;;
14056;SDS011;7103;54.300;10.180;2022-07-05T14:13:53;0.20;;;0.20;;
14056;SDS011;7103;54.300;10.180;2022-07-05T14:16:20;0.20;;;0.20;;
14056;SDS011;7103;54.300;10.180;2022-07-05T14:18:48;0.20;;;0.20;;
14056;SDS011;7103;54.300;10.180;2022-07-05T14:21:18;0.20;;;0.20;;
14056;SDS011;7103;54.300;10.180;2022-07-05T14:23:58;0.20;;;0.20;;
14056;SDS011;7103;54.300;10.180;2022-07-05T14:26:25;0.20;;;0.20;;
14056;SDS011;7103;54.300;10.180;2022-07-05T14:28:54;0.20;;;0.20;;
14056;SDS011;7103;54.300;10.180;2022-07-05T14:31:21;0.20;;;0.20;;
14056;SDS011;7103;54.300;10.180;2022-07-05T14:33:49;0.20;;;0.20;;
14056;SDS011;7103;54.300;10.180;2022-07-05T14:36:17;0.20;;;0.20;;
14056;SDS011;7103;54.300;10.180;2022-07-05T14:38:45;0.20;;;0.20;;
14056;SDS011;7103;54.300;10.180;2022-07-05T14:41:12;0.20;;;0.20;;
14056;SDS011;7103;54.300;10.180;2022-07-05T14:43:39;0.20;;;0.20;;
14056;SDS011;7103;54.300;10.180;2022-07-05T14:46:06;0.20;;;0.20;;
14056;SDS011;7103;54.300;10.180;2022-07-05T14:48:34;0.20;;;0.20;;
14056;SDS011;7103;54.300;10.180;2022-07-05T14:51:01;0.20;;;0.20;;
14056;SDS011;7103;54.300;10.180;2022-07-05T14:53:28;0.20;;;0.20;;
14056;SDS011;7103;54.300;10.180;2022-07-05T14:55:55;0.20;;;0.20;;
14056;SDS011;7103;54.300;10.180;2022-07-05T14:58:22;0.20;;;0.20;;
14056;SDS011;7103;54.300;10.180;2022-07-05T15:00:49;0.20;;;0.20;;
14056;SDS011;7103;54.300;10.180;2022-07-05T15:03:16;0.20;;;0.20;;
14056;SDS011;7103;54.300;10.180;2022-07-05T15:05:43;0.20;;;0.20;;
14056;SDS011;7103;54.300;10.180;2022-07-05T15:08:10;0.20;;;0.20;;
14056;SDS011;7103;54.300;10.180;2022-07-05T15:10:37;0.20;;;0.20;;
14056;SDS011;7103;54.300;10.180;2022-07-05T15:13:04;0.20;;;0.20;;
14056;SDS011;7103;54.300;10.180;2022-07-05T15:15:32;0.20;;;0.20;;
14056;SDS011;7103;54.300;10.180;2022-07-05T15:17:59;0.20;;;0.20;;